createdAt,value
2018-11-03T00:01:04.333Z,65.00
2018-11-03T00:03:32.529Z,65.00
2018-11-03T00:06:00.716Z,65.00
2018-11-03T00:08:28.924Z,64.90
2018-11-03T00:10:57.102Z,64.80
2018-11-03T00:13:25.289Z,64.50
2018-11-03T00:15:53.562Z,64.40
2018-11-03T00:18:21.779Z,64.40
2018-11-03T00:20:49.961Z,64.70
2018-11-03T00:23:18.171Z,64.20
2018-11-03T00:25:46.362Z,64.30
2018-11-03T00:28:14.590Z,64.30
2018-11-03T00:30:42.791Z,64.40
2018-11-03T00:33:10.986Z,64.50
2018-11-03T00:35:39.179Z,64.50
2018-11-03T00:38:07.367Z,64.70
2018-11-03T00:40:35.619Z,64.70
2018-11-03T00:43:04.598Z,64.70
2018-11-03T00:45:32.783Z,64.70
2018-11-03T00:48:00.983Z,64.80
2018-11-03T00:50:29.201Z,65.00
2018-11-03T00:52:57.378Z,65.30
2018-11-03T00:55:26.041Z,65.30
2018-11-03T00:57:54.258Z,65.30
2018-11-03T01:00:22.444Z,65.40
2018-11-03T01:02:50.736Z,65.40
2018-11-03T01:05:19.000Z,65.10
2018-11-03T01:07:47.678Z,65.20
2018-11-03T01:10:16.840Z,65.10
2018-11-03T01:12:45.035Z,65.00
2018-11-03T01:15:14.478Z,64.80
2018-11-03T01:17:42.822Z,64.80
2018-11-03T01:20:12.942Z,64.80
2018-11-03T01:22:41.150Z,64.90
2018-11-03T01:25:09.706Z,64.90
2018-11-03T01:27:37.939Z,65.10
2018-11-03T01:30:09.082Z,65.30
2018-11-03T01:32:37.433Z,65.40
2018-11-03T01:35:06.388Z,65.60
2018-11-03T01:37:34.607Z,65.60
2018-11-03T01:40:02.922Z,65.70
2018-11-03T01:42:31.191Z,65.70
2018-11-03T01:44:59.398Z,65.50
2018-11-03T01:47:27.610Z,65.40
2018-11-03T01:49:55.800Z,65.60
2018-11-03T01:52:24.018Z,65.40
2018-11-03T01:54:52.202Z,65.50
2018-11-03T01:57:20.402Z,66.10
2018-11-03T01:59:48.637Z,65.70
2018-11-03T02:02:16.835Z,65.80
2018-11-03T02:04:45.081Z,65.70
2018-11-03T02:07:13.314Z,65.80
2018-11-03T02:09:41.522Z,65.80
2018-11-03T02:12:09.743Z,65.80
2018-11-03T02:14:37.932Z,65.80
2018-11-03T02:17:06.345Z,65.90
2018-11-03T02:19:34.525Z,66.20
2018-11-03T02:22:02.778Z,65.90
2018-11-03T02:24:31.091Z,66.00
2018-11-03T02:26:59.390Z,66.20
2018-11-03T02:29:27.588Z,67.00
2018-11-03T02:31:55.778Z,66.20
2018-11-03T02:34:24.179Z,66.10
2018-11-03T02:36:53.140Z,66.20
2018-11-03T02:39:22.449Z,66.10
2018-11-03T02:41:50.807Z,65.90
2018-11-03T02:44:19.140Z,65.90
2018-11-03T02:46:47.332Z,65.70
2018-11-03T02:49:15.543Z,65.70
2018-11-03T02:51:43.714Z,65.40
2018-11-03T02:54:11.932Z,65.30
2018-11-03T02:56:40.125Z,65.40
2018-11-03T02:59:08.339Z,65.40
2018-11-03T03:01:36.527Z,65.20
2018-11-03T03:04:04.834Z,65.10
2018-11-03T03:06:33.010Z,65.20
2018-11-03T03:09:01.235Z,65.30
2018-11-03T03:11:29.432Z,65.40
2018-11-03T03:13:57.779Z,65.50
2018-11-03T03:16:25.995Z,65.70
2018-11-03T03:18:54.225Z,66.00
2018-11-03T03:21:22.419Z,66.00
2018-11-03T03:23:50.619Z,66.20
2018-11-03T03:26:18.812Z,66.20
2018-11-03T03:28:47.065Z,66.10
2018-11-03T03:31:15.203Z,66.50
2018-11-03T03:33:43.466Z,65.80
2018-11-03T03:36:11.722Z,65.50
2018-11-03T03:38:39.869Z,65.30
2018-11-03T03:41:08.062Z,65.20
2018-11-03T03:43:36.242Z,65.10
2018-11-03T03:46:04.633Z,65.00
2018-11-03T03:48:32.810Z,65.20
2018-11-03T03:51:01.026Z,65.40
2018-11-03T03:53:29.207Z,65.50
2018-11-03T03:55:57.476Z,65.90
2018-11-03T03:58:25.666Z,65.90
2018-11-03T04:00:53.881Z,66.00
2018-11-03T04:03:22.074Z,66.10
2018-11-03T04:05:50.320Z,66.00
2018-11-03T04:08:18.514Z,65.80
2018-11-03T04:10:46.728Z,65.70
2018-11-03T04:13:14.927Z,65.70
2018-11-03T04:15:43.123Z,65.70
2018-11-03T04:18:11.330Z,65.70
2018-11-03T04:20:39.543Z,65.80
2018-11-03T04:23:07.738Z,66.00
2018-11-03T04:25:35.990Z,65.90
2018-11-03T04:28:04.362Z,66.90
2018-11-03T04:30:32.561Z,65.80
2018-11-03T04:33:00.807Z,65.60
2018-11-03T04:35:29.539Z,66.00
2018-11-03T04:37:57.813Z,65.70
2018-11-03T04:40:26.023Z,65.60
2018-11-03T04:42:54.228Z,65.90
2018-11-03T04:45:22.513Z,66.00
2018-11-03T04:47:50.717Z,65.80
2018-11-03T04:50:18.851Z,65.60
2018-11-03T04:52:47.047Z,65.70
2018-11-03T04:55:15.305Z,65.80
2018-11-03T04:57:43.438Z,65.80
2018-11-03T05:00:12.013Z,65.90
2018-11-03T05:02:40.226Z,65.80
2018-11-03T05:05:08.418Z,65.90
2018-11-03T05:07:36.649Z,65.60
2018-11-03T05:10:05.895Z,65.50
2018-11-03T05:12:34.127Z,65.70
2018-11-03T05:15:02.382Z,65.50
2018-11-03T05:17:30.725Z,65.50
2018-11-03T05:19:58.908Z,65.50
2018-11-03T05:22:27.126Z,65.50
2018-11-03T05:24:55.361Z,65.30
2018-11-03T05:27:23.566Z,66.30
2018-11-03T05:29:51.770Z,66.20
2018-11-03T05:32:19.959Z,66.60
2018-11-03T05:34:48.175Z,66.40
2018-11-03T05:37:16.368Z,66.40
2018-11-03T05:39:44.658Z,66.30
2018-11-03T05:42:12.872Z,66.40
2018-11-03T05:44:41.155Z,66.40
2018-11-03T05:47:09.327Z,66.40
2018-11-03T05:49:37.550Z,66.40
2018-11-03T05:52:05.722Z,66.50
2018-11-03T05:54:33.945Z,66.40
2018-11-03T05:57:02.141Z,66.10
2018-11-03T05:59:30.345Z,66.20
2018-11-03T06:01:58.559Z,66.20
2018-11-03T06:04:26.746Z,66.20
2018-11-03T06:06:54.916Z,66.10
2018-11-03T06:09:23.103Z,65.80
2018-11-03T06:11:51.403Z,65.80
2018-11-03T06:14:19.594Z,65.90
2018-11-03T06:16:47.816Z,65.90
2018-11-03T06:19:15.990Z,65.80
2018-11-03T06:21:44.171Z,65.70
2018-11-03T06:24:12.350Z,65.70
2018-11-03T06:26:40.623Z,66.50
2018-11-03T06:29:08.823Z,66.00
2018-11-03T06:31:37.038Z,66.00
2018-11-03T06:34:05.328Z,66.00
2018-11-03T06:36:33.514Z,66.40
2018-11-03T06:39:01.868Z,66.40
2018-11-03T06:41:30.075Z,66.40
2018-11-03T06:43:58.246Z,66.10
2018-11-03T06:46:26.498Z,66.10
2018-11-03T06:48:58.873Z,66.80
2018-11-03T06:51:27.074Z,66.30
2018-11-03T06:53:55.254Z,66.20
2018-11-03T06:56:23.453Z,66.40
2018-11-03T06:58:51.637Z,66.20
2018-11-03T07:01:19.834Z,66.50
2018-11-03T07:03:48.041Z,66.60
2018-11-03T07:06:16.240Z,66.40
2018-11-03T07:08:44.451Z,66.50
2018-11-03T07:11:12.657Z,66.60
2018-11-03T07:13:40.902Z,66.70
2018-11-03T07:16:09.119Z,67.00
2018-11-03T07:18:37.331Z,67.00
2018-11-03T07:21:05.511Z,67.10
2018-11-03T07:23:33.731Z,67.00
2018-11-03T07:26:01.916Z,67.00
2018-11-03T07:28:30.080Z,67.00
2018-11-03T07:30:58.276Z,67.20
2018-11-03T07:33:26.443Z,67.30
2018-11-03T07:35:54.647Z,67.20
2018-11-03T07:38:22.871Z,67.50
2018-11-03T07:40:51.172Z,67.40
2018-11-03T07:43:19.333Z,67.30
2018-11-03T07:45:47.572Z,67.20
2018-11-03T07:48:15.884Z,67.50
2018-11-03T07:50:43.999Z,67.40
2018-11-03T07:53:12.226Z,67.50
2018-11-03T07:55:40.422Z,67.70
2018-11-03T07:58:09.125Z,67.40
2018-11-03T08:00:37.442Z,67.40
2018-11-03T08:03:05.495Z,67.30
2018-11-03T08:05:33.707Z,67.40
2018-11-03T08:08:01.894Z,67.50
2018-11-03T08:10:30.107Z,68.20
2018-11-03T08:12:58.327Z,67.20
2018-11-03T08:15:26.551Z,66.90
2018-11-03T08:17:54.690Z,66.90
2018-11-03T08:20:22.904Z,67.00
2018-11-03T08:22:51.087Z,66.70
2018-11-03T08:25:19.258Z,66.60
2018-11-03T08:27:47.460Z,66.90
2018-11-03T08:30:15.697Z,66.70
2018-11-03T08:32:43.889Z,66.70
2018-11-03T08:35:12.837Z,66.70
2018-11-03T08:37:41.126Z,66.50
2018-11-03T08:40:10.850Z,66.50
2018-11-03T08:42:39.419Z,66.50
2018-11-03T08:45:08.031Z,66.50
2018-11-03T08:47:36.291Z,66.40
2018-11-03T08:50:04.929Z,66.40
2018-11-03T08:52:33.131Z,66.70
2018-11-03T08:55:01.312Z,66.50
2018-11-03T08:57:29.503Z,66.60
2018-11-03T08:59:57.947Z,66.50
2018-11-03T09:02:25.996Z,66.90
2018-11-03T09:04:54.226Z,66.60
2018-11-03T09:07:22.402Z,66.60
2018-11-03T09:09:50.695Z,66.50
2018-11-03T09:12:18.926Z,66.60
2018-11-03T09:14:47.559Z,66.70
2018-11-03T09:17:15.702Z,66.80
2018-11-03T09:19:43.928Z,67.20
2018-11-03T09:22:12.129Z,67.70
2018-11-03T09:24:40.350Z,67.00
2018-11-03T09:27:08.610Z,66.80
2018-11-03T09:29:36.867Z,66.80
2018-11-03T09:32:05.547Z,66.10
2018-11-03T09:34:33.569Z,66.20
2018-11-03T09:37:01.959Z,65.80
2018-11-03T09:39:30.231Z,66.00
2018-11-03T09:41:58.424Z,66.40
2018-11-03T09:44:26.658Z,65.70
2018-11-03T09:46:54.927Z,66.10
2018-11-03T09:49:23.154Z,66.10
2018-11-03T09:51:51.342Z,65.80
2018-11-03T09:54:19.737Z,66.00
2018-11-03T09:56:48.066Z,64.60
2018-11-03T09:59:17.118Z,64.40
2018-11-03T10:01:45.322Z,64.20
2018-11-03T10:04:14.738Z,63.60
2018-11-03T10:06:43.186Z,63.60
2018-11-03T10:09:11.312Z,63.30
2018-11-03T10:11:39.571Z,63.70
2018-11-03T10:14:08.247Z,63.80
2018-11-03T10:16:36.502Z,63.00
2018-11-03T10:19:04.715Z,63.10
2018-11-03T10:21:33.154Z,62.90
2018-11-03T10:24:01.438Z,62.70
2018-11-03T10:26:29.654Z,62.40
2018-11-03T10:28:57.851Z,61.80
2018-11-03T10:31:26.027Z,61.80
2018-11-03T10:33:54.232Z,61.60
2018-11-03T10:36:22.793Z,61.40
2018-11-03T10:38:50.973Z,61.80
2018-11-03T10:41:19.168Z,61.00
2018-11-03T10:43:47.386Z,60.90
2018-11-03T10:46:15.657Z,60.90
2018-11-03T10:48:43.798Z,60.40
2018-11-03T10:51:12.019Z,60.10
2018-11-03T10:53:40.293Z,60.10
2018-11-03T10:56:08.488Z,60.00
2018-11-03T10:58:36.666Z,59.70
2018-11-03T11:01:10.469Z,59.60
2018-11-03T11:03:44.283Z,59.60
2018-11-03T11:06:17.946Z,59.40
2018-11-03T11:08:51.730Z,59.10
2018-11-03T11:11:25.357Z,59.10
2018-11-03T11:13:53.633Z,58.90
2018-11-03T11:16:21.858Z,58.90
2018-11-03T11:18:49.950Z,58.90
2018-11-03T11:21:18.123Z,59.00
2018-11-03T11:23:47.309Z,58.90
2018-11-03T11:26:15.510Z,58.90
2018-11-03T11:28:43.789Z,58.90
2018-11-03T11:31:12.007Z,58.90
2018-11-03T11:33:40.211Z,58.90
2018-11-03T11:36:08.406Z,58.50
2018-11-03T11:38:36.662Z,58.60
2018-11-03T11:41:05.051Z,58.70
2018-11-03T11:43:33.257Z,58.70
2018-11-03T11:46:01.582Z,58.90
2018-11-03T11:48:30.151Z,59.00
2018-11-03T11:50:58.323Z,59.00
2018-11-03T11:53:26.513Z,58.90
2018-11-03T11:55:54.690Z,58.90
2018-11-03T11:58:23.072Z,58.80
2018-11-03T12:00:51.353Z,58.70
2018-11-03T12:03:19.480Z,58.90
2018-11-03T12:05:48.630Z,58.90
2018-11-03T12:08:16.835Z,58.70
2018-11-03T12:10:45.120Z,58.90
2018-11-03T12:13:14.715Z,59.10
2018-11-03T12:15:42.907Z,59.00
2018-11-03T12:18:11.145Z,58.80
2018-11-03T12:20:39.342Z,58.80
2018-11-03T12:23:07.547Z,58.70
2018-11-03T12:25:35.822Z,58.30
2018-11-03T12:28:03.945Z,58.50
2018-11-03T12:30:32.127Z,58.50
2018-11-03T12:33:00.309Z,58.50
2018-11-03T12:35:28.502Z,58.40
2018-11-03T12:37:56.695Z,58.10
2018-11-03T12:40:24.976Z,58.20
2018-11-03T12:42:53.240Z,58.40
2018-11-03T12:45:21.474Z,58.20
2018-11-03T12:47:50.094Z,58.00
2018-11-03T12:50:18.449Z,57.90
2018-11-03T12:52:46.691Z,57.80
2018-11-03T12:55:14.900Z,57.70
2018-11-03T12:57:43.587Z,57.80
2018-11-03T13:00:13.521Z,57.60
2018-11-03T13:02:42.682Z,57.50
2018-11-03T13:05:11.011Z,57.60
2018-11-03T13:07:40.166Z,57.70
2018-11-03T13:10:09.354Z,57.60
2018-11-03T13:12:38.062Z,57.50
2018-11-03T13:15:06.902Z,57.50
2018-11-03T13:17:35.133Z,57.40
2018-11-03T13:20:03.313Z,57.60
2018-11-03T13:22:31.570Z,57.40
2018-11-03T13:24:59.763Z,57.10
2018-11-03T13:27:27.949Z,57.40
2018-11-03T13:29:56.145Z,57.10
2018-11-03T13:32:24.326Z,57.20
2018-11-03T13:34:52.571Z,57.20
2018-11-03T13:37:20.720Z,57.20
2018-11-03T13:39:48.915Z,57.10
2018-11-03T13:42:17.107Z,57.10
2018-11-03T13:44:45.330Z,57.00
2018-11-03T13:47:13.618Z,57.00
2018-11-03T13:49:41.782Z,57.10
2018-11-03T13:52:10.005Z,57.30
2018-11-03T13:54:38.171Z,57.60
2018-11-03T13:57:06.454Z,57.50
2018-11-03T13:59:34.575Z,57.00
2018-11-03T14:02:02.790Z,56.90
2018-11-03T14:04:30.984Z,56.70
2018-11-03T14:06:59.198Z,56.30
2018-11-03T14:09:27.450Z,56.40
2018-11-03T14:11:55.615Z,56.10
2018-11-03T14:14:23.915Z,56.00
2018-11-03T14:16:52.159Z,56.00
2018-11-03T14:19:20.356Z,55.60
2018-11-03T14:21:48.574Z,55.60
2018-11-03T14:24:16.715Z,55.70
2018-11-03T14:26:44.891Z,55.60
2018-11-03T14:29:13.252Z,55.20
2018-11-03T14:31:41.230Z,55.20
2018-11-03T14:34:09.410Z,55.20
2018-11-03T14:36:37.630Z,55.30
2018-11-03T14:39:07.487Z,55.10
2018-11-03T14:41:35.665Z,54.80
2018-11-03T14:44:03.847Z,54.70
2018-11-03T14:46:32.140Z,54.60
2018-11-03T14:49:00.337Z,54.60
2018-11-03T14:51:28.519Z,54.70
2018-11-03T14:53:56.807Z,54.80
2018-11-03T14:56:25.038Z,54.90
2018-11-03T14:58:53.179Z,55.00
2018-11-03T15:01:21.370Z,55.20
2018-11-03T15:03:49.540Z,55.50
2018-11-03T15:06:17.714Z,55.70
2018-11-03T15:08:45.889Z,55.90
2018-11-03T15:11:14.101Z,55.90
2018-11-03T15:13:42.382Z,56.10
2018-11-03T15:16:10.483Z,56.40
2018-11-03T15:18:38.758Z,56.50
2018-11-03T15:21:06.983Z,56.50
2018-11-03T15:23:35.226Z,56.50
2018-11-03T15:26:03.399Z,56.70
2018-11-03T15:28:31.585Z,56.80
2018-11-03T15:30:59.762Z,57.00
2018-11-03T15:33:27.939Z,57.10
2018-11-03T15:35:56.138Z,57.10
2018-11-03T15:38:24.318Z,57.20
2018-11-03T15:40:52.550Z,57.30
2018-11-03T15:43:20.847Z,57.40
2018-11-03T15:45:49.015Z,57.60
2018-11-03T15:48:17.192Z,57.60
2018-11-03T15:50:48.964Z,57.70
2018-11-03T15:53:17.223Z,57.70
2018-11-03T15:55:45.448Z,58.00
2018-11-03T15:58:13.641Z,58.10
2018-11-03T16:00:41.838Z,58.40
2018-11-03T16:03:10.083Z,58.80
2018-11-03T16:05:38.290Z,59.00
2018-11-03T16:08:06.626Z,59.20
2018-11-03T16:10:34.851Z,59.30
2018-11-03T16:13:03.027Z,59.40
2018-11-03T16:15:31.210Z,59.30
2018-11-03T16:17:59.392Z,59.40
2018-11-03T16:20:27.575Z,59.60
2018-11-03T16:22:55.891Z,59.60
2018-11-03T16:25:23.954Z,59.80
2018-11-03T16:27:52.143Z,59.80
2018-11-03T16:30:20.322Z,60.00
2018-11-03T16:32:48.659Z,60.20
2018-11-03T16:35:16.779Z,60.30
2018-11-03T16:37:44.926Z,60.50
2018-11-03T16:40:14.291Z,60.70
2018-11-03T16:42:43.059Z,60.70
2018-11-03T16:45:12.782Z,61.00
2018-11-03T16:47:41.439Z,61.10
2018-11-03T16:50:10.647Z,61.30
2018-11-03T16:52:39.408Z,62.00
2018-11-03T16:55:08.126Z,61.60
2018-11-03T16:57:36.963Z,61.70
2018-11-03T17:00:06.483Z,61.80
2018-11-03T17:02:34.662Z,63.00
2018-11-03T17:05:02.850Z,63.20
2018-11-03T17:07:31.039Z,63.30
2018-11-03T17:09:59.223Z,63.50
2018-11-03T17:12:27.478Z,63.60
2018-11-03T17:14:55.599Z,63.80
2018-11-03T17:17:23.771Z,63.80
2018-11-03T17:19:51.977Z,63.90
2018-11-03T17:22:20.171Z,64.10
2018-11-03T17:24:48.371Z,64.20
2018-11-03T17:27:16.544Z,64.30
2018-11-03T17:29:44.736Z,64.50
2018-11-03T17:32:12.921Z,64.60
2018-11-03T17:34:41.146Z,64.70
2018-11-03T17:37:09.346Z,64.80
2018-11-03T17:39:37.514Z,65.80
2018-11-03T17:42:05.700Z,65.10
2018-11-03T17:44:33.890Z,65.20
2018-11-03T17:47:02.075Z,65.30
2018-11-03T17:49:30.603Z,65.40
2018-11-03T17:51:58.811Z,65.50
2018-11-03T17:54:26.999Z,65.50
2018-11-03T17:56:55.192Z,65.40
2018-11-03T17:59:23.363Z,65.50
2018-11-03T18:01:51.555Z,65.50
2018-11-03T18:04:19.740Z,65.60
2018-11-03T18:06:48.252Z,65.60
2018-11-03T18:09:16.423Z,65.60
2018-11-03T18:11:44.684Z,65.70
2018-11-03T18:14:12.942Z,65.50
2018-11-03T18:16:41.169Z,65.50
2018-11-03T18:19:09.370Z,65.60
2018-11-03T18:21:37.623Z,65.60
2018-11-03T18:24:05.850Z,65.50
2018-11-03T18:26:34.283Z,65.50
2018-11-03T18:29:02.403Z,65.50
2018-11-03T18:31:30.738Z,65.50
2018-11-03T18:33:59.026Z,65.50
2018-11-03T18:36:27.204Z,65.60
2018-11-03T18:38:55.387Z,65.50
2018-11-03T18:41:23.627Z,65.50
2018-11-03T18:43:51.870Z,65.60
2018-11-03T18:46:20.089Z,65.50
2018-11-03T18:48:48.241Z,65.60
2018-11-03T18:51:16.422Z,65.60
2018-11-03T18:53:44.611Z,65.50
2018-11-03T18:56:12.803Z,65.70
2018-11-03T18:58:41.034Z,65.70
2018-11-03T19:01:09.199Z,65.80
2018-11-03T19:03:37.396Z,66.00
2018-11-03T19:06:05.999Z,66.00
2018-11-03T19:08:34.748Z,65.90
2018-11-03T19:11:02.956Z,65.90
2018-11-03T19:13:31.134Z,65.70
2018-11-03T19:15:59.320Z,65.70
2018-11-03T19:18:27.493Z,65.70
2018-11-03T19:20:55.914Z,65.70
2018-11-03T19:23:24.215Z,65.80
2018-11-03T19:25:52.342Z,65.80
2018-11-03T19:28:20.636Z,65.80
2018-11-03T19:30:48.867Z,65.80
2018-11-03T19:33:17.194Z,65.80
2018-11-03T19:35:45.406Z,65.90
2018-11-03T19:38:13.637Z,65.80
2018-11-03T19:40:45.079Z,65.80
2018-11-03T19:43:13.231Z,66.00
2018-11-03T19:45:41.584Z,66.00
2018-11-03T19:48:10.126Z,65.90
2018-11-03T19:50:38.305Z,65.90
2018-11-03T19:53:06.514Z,66.00
2018-11-03T19:55:34.988Z,66.00
2018-11-03T19:58:03.160Z,66.00
2018-11-03T20:00:31.412Z,65.90
2018-11-03T20:02:59.647Z,66.00
2018-11-03T20:05:27.795Z,66.00
2018-11-03T20:07:56.222Z,66.00
2018-11-03T20:10:24.675Z,66.00
2018-11-03T20:12:52.909Z,66.50
2018-11-03T20:15:21.114Z,66.00
2018-11-03T20:17:49.366Z,66.00
2018-11-03T20:20:17.494Z,65.90
2018-11-03T20:22:45.714Z,66.10
2018-11-03T20:25:14.148Z,66.20
2018-11-03T20:27:42.339Z,66.10
2018-11-03T20:30:13.667Z,66.00
2018-11-03T20:32:41.926Z,66.10
2018-11-03T20:35:10.172Z,66.10
2018-11-03T20:37:38.664Z,65.90
2018-11-03T20:40:07.718Z,65.90
2018-11-03T20:42:35.935Z,66.00
2018-11-03T20:45:04.145Z,66.00
2018-11-03T20:47:32.351Z,66.00
2018-11-03T20:50:00.554Z,66.10
2018-11-03T20:52:28.820Z,65.90
2018-11-03T20:54:57.159Z,65.90
2018-11-03T20:57:25.414Z,65.90
2018-11-03T20:59:53.587Z,65.90
2018-11-03T21:02:21.795Z,65.90
2018-11-03T21:04:50.086Z,66.50
2018-11-03T21:07:18.293Z,65.80
2018-11-03T21:09:46.532Z,65.80
2018-11-03T21:12:14.766Z,65.90
2018-11-03T21:14:43.012Z,66.10
2018-11-03T21:17:11.206Z,66.90
2018-11-03T21:19:39.401Z,66.10
2018-11-03T21:22:09.570Z,65.90
2018-11-03T21:24:38.039Z,65.70
2018-11-03T21:27:07.405Z,65.60
2018-11-03T21:29:35.595Z,65.60
2018-11-03T21:32:03.875Z,65.70
2018-11-03T21:34:31.946Z,65.50
2018-11-03T21:37:00.122Z,65.70
2018-11-03T21:39:28.310Z,65.70
2018-11-03T21:41:56.487Z,65.70
2018-11-03T21:44:24.678Z,65.60
2018-11-03T21:46:53.166Z,65.50
2018-11-03T21:49:21.157Z,65.50
2018-11-03T21:51:49.338Z,65.40
2018-11-03T21:54:17.519Z,65.30
2018-11-03T21:56:45.707Z,65.90
2018-11-03T21:59:13.930Z,65.40
2018-11-03T22:01:42.211Z,65.40
2018-11-03T22:04:10.616Z,65.40
2018-11-03T22:06:38.996Z,65.50
2018-11-03T22:09:09.147Z,65.60
2018-11-03T22:11:37.334Z,65.80
2018-11-03T22:14:05.599Z,65.70
2018-11-03T22:16:34.033Z,65.80
2018-11-03T22:19:02.218Z,65.70
2018-11-03T22:21:31.071Z,65.70
2018-11-03T22:23:59.702Z,65.50
2018-11-03T22:26:27.920Z,65.70
2018-11-03T22:28:56.464Z,65.70
2018-11-03T22:31:24.664Z,65.90
2018-11-03T22:33:52.859Z,66.00
2018-11-03T22:36:21.046Z,65.90
2018-11-03T22:38:49.216Z,65.90
2018-11-03T22:41:17.487Z,65.80
2018-11-03T22:43:45.666Z,65.70
2018-11-03T22:46:13.850Z,65.60
2018-11-03T22:48:42.576Z,65.80
2018-11-03T22:51:13.724Z,65.50
2018-11-03T22:53:42.823Z,65.80
2018-11-03T22:56:11.015Z,65.70
2018-11-03T22:58:39.210Z,65.50
2018-11-03T23:01:07.411Z,65.40
2018-11-03T23:03:35.598Z,65.50
2018-11-03T23:06:03.772Z,65.40
2018-11-03T23:08:31.950Z,65.50
2018-11-03T23:11:00.130Z,65.40
2018-11-03T23:13:28.346Z,65.40
2018-11-03T23:15:56.484Z,65.50
2018-11-03T23:18:24.658Z,65.50
2018-11-03T23:20:52.826Z,65.80
2018-11-03T23:23:21.039Z,65.60
2018-11-03T23:25:49.225Z,65.70
2018-11-03T23:28:17.405Z,65.60
2018-11-03T23:30:45.598Z,65.80
2018-11-03T23:33:13.762Z,65.70
2018-11-03T23:35:41.961Z,65.80
2018-11-03T23:38:10.159Z,65.30
2018-11-03T23:40:38.335Z,65.10
2018-11-03T23:43:06.523Z,65.20
2018-11-03T23:45:34.734Z,65.00
2018-11-03T23:48:02.926Z,65.00
2018-11-03T23:50:31.124Z,64.70
2018-11-03T23:52:59.417Z,65.00
2018-11-03T23:55:27.611Z,64.90
2018-11-03T23:57:55.795Z,64.90
